Stacja Pogody Warszawa Praga Północ 


Stacja Pogody
Warszawa Praga Północ

 Szerokość N 52° 15 '43"    Długość E 21° 01' 22"    Wysokość 89 m n.p.m.


Wschód Słońca 07:42 Górowanie Słońca 11:33 Zachód Słońca 15:24 strzelec
Data juliańska 2457012.137 Odległość Słońca 147166643 km Średn. kątowa Słońca 0,325°
Wschód Księżyca 05:27 Zachód Księżyca 14:31 Wiek Księżyca 28 dni Moon
Widoczność Księżyca 2,88% Odległość Księżyca 380513 km Średn. kątowa Księżyca 0,314°
Dzień krótszy od najdłuższego o: 09:05 Długość dnia 07:41 Imieniny Bogumiły, Dominika




Warunki pogodowe uaktualnione 20-12-2014, o godzinie 15:11
Temperatura 6.0 °C ↓ Temperatura odczuwalna -4.2 °C
Punkt rosy 1.9 °C Humidex 4.3 °C
Deszcz na godzinę 0.0 mm Wilgotność względna 75% ↑
Prędkość wiatru (średnia) 23 km/h ↑ Prędkość wiatru (podmuch) 44 km/h
Kierunek wiatru S Skala Beaufort'a 6
Ciśnienie względne  1007 hPa Trend ciśnienia powolny spadek
Ciśnienie bezwzględne  994 hPa Podstawa chmur 589.2 m
METAR EPWA 201400Z 24012KT 190V280 9999
TAF TAF EPWA 201130Z 2012/2112 25014KT 9999 BKN030





 a

Valid XHTML 1.0 Transitional Valid CSS!